Time;durP1;ratioP1;P1;durP2;ratioP2;P2;SDS_P1;SDS_P2;PMS_P1;PMS_P2;Temp;Humidity;BMP_temperature;BMP_pressure;BME280_temperature;BME280_humidity;BME280_pressure;Samples;Min_cycle;Max_cycle;Signal;HPM_P1;HPM_P2
2024/03/16 00:02:04;;;;;;;24.27;6.07;;;11.30;99.90;;;;;;5120416;27;20044;-67
2024/03/16 00:04:30;;;;;;;26.88;5.72;;;11.20;99.90;;;;;;5108852;28;20035;-67
2024/03/16 00:06:57;;;;;;;23.55;4.35;;;11.20;99.90;;;;;;5107111;28;20040;-67
2024/03/16 00:09:23;;;;;;;22.42;6.07;;;11.30;99.90;;;;;;5088388;28;20089;-67
2024/03/16 00:11:49;;;;;;;21.20;6.03;;;11.30;99.90;;;;;;5095207;28;20043;-67
2024/03/16 00:14:14;;;;;;;22.65;5.35;;;11.20;99.90;;;;;;5089826;28;20043;-67
2024/03/16 00:16:40;;;;;;;20.80;4.75;;;11.30;99.90;;;;;;5089093;28;20757;-67
2024/03/16 00:19:05;;;;;;;26.27;6.32;;;11.20;99.90;;;;;;5118848;27;20074;-67
2024/03/16 00:21:31;;;;;;;26.13;5.35;;;11.30;99.90;;;;;;5104462;28;20046;-67
2024/03/16 00:23:57;;;;;;;27.42;5.93;;;11.20;99.90;;;;;;5089344;28;20481;-67
2024/03/16 00:26:23;;;;;;;27.67;6.30;;;11.20;99.90;;;;;;5119799;27;20039;-67
2024/03/16 00:28:50;;;;;;;28.55;5.80;;;11.20;99.90;;;;;;5086016;28;20066;-67
2024/03/16 00:31:18;;;;;;;22.77;5.32;;;11.20;99.90;;;;;;5087072;28;20382;-67
2024/03/16 00:33:43;;;;;;;31.60;6.30;;;11.20;99.90;;;;;;5089187;27;20146;-67
2024/03/16 00:36:09;;;;;;;28.35;5.72;;;11.20;99.90;;;;;;5088971;28;20039;-67
2024/03/16 00:38:35;;;;;;;28.08;5.43;;;11.10;99.90;;;;;;5088680;28;20065;-67
2024/03/16 00:41:02;;;;;;;27.35;6.35;;;11.10;99.90;;;;;;5089614;28;20126;-68
2024/03/16 00:43:28;;;;;;;29.65;5.55;;;11.10;99.90;;;;;;5117374;27;20048;-68
2024/03/16 00:45:53;;;;;;;24.85;5.30;;;11.10;99.90;;;;;;5107509;28;20164;-68
2024/03/16 00:48:19;;;;;;;30.08;5.85;;;11.10;99.90;;;;;;5105770;28;20520;-68
2024/03/16 00:50:45;;;;;;;27.65;6.15;;;11.00;99.90;;;;;;5088969;28;20039;-68
2024/03/16 00:53:11;;;;;;;33.35;6.65;;;11.00;99.90;;;;;;5087343;28;20039;-68
2024/03/16 00:55:37;;;;;;;28.05;6.30;;;11.00;99.90;;;;;;5087477;28;20515;-67
2024/03/16 00:58:03;;;;;;;32.45;6.75;;;10.90;99.90;;;;;;5091049;28;20039;-69
2024/03/16 01:00:31;;;;;;;27.98;5.90;;;10.90;99.90;;;;;;5118448;27;20036;-68
2024/03/16 01:02:57;;;;;;;31.67;9.18;;;10.80;99.90;;;;;;5080860;28;20119;-68
2024/03/16 01:05:26;;;;;;;32.47;7.07;;;10.80;99.90;;;;;;5085019;28;20039;-68
2024/03/16 01:07:52;;;;;;;34.47;8.45;;;10.80;99.90;;;;;;5087083;28;20059;-68
2024/03/16 01:10:17;;;;;;;35.50;7.65;;;10.80;99.90;;;;;;5103253;27;20088;-68
2024/03/16 01:12:43;;;;;;;32.20;7.85;;;10.80;99.90;;;;;;5087843;28;20038;-68
2024/03/16 01:15:09;;;;;;;32.17;8.77;;;10.80;99.90;;;;;;5118204;27;20050;-69
2024/03/16 01:17:35;;;;;;;34.08;7.70;;;10.80;99.90;;;;;;5101864;28;20119;-68
2024/03/16 01:20:01;;;;;;;33.40;8.77;;;10.70;99.90;;;;;;5105692;28;20462;-68
2024/03/16 01:22:27;;;;;;;43.47;11.82;;;10.70;99.90;;;;;;5105606;28;20040;-68
2024/03/16 01:24:52;;;;;;;40.15;11.05;;;10.70;99.90;;;;;;5104694;28;20040;-68
2024/03/16 01:27:18;;;;;;;47.03;13.15;;;10.60;99.90;;;;;;5086757;27;20124;-67
2024/03/16 01:29:44;;;;;;;36.30;10.88;;;10.70;99.90;;;;;;5089009;28;20051;-68
2024/03/16 01:32:10;;;;;;;49.28;14.85;;;10.70;99.90;;;;;;5105255;28;20036;-68
2024/03/16 01:34:36;;;;;;;43.10;12.35;;;10.70;99.90;;;;;;5086535;28;20036;-68
2024/03/16 01:37:02;;;;;;;44.05;13.35;;;10.70;99.90;;;;;;5102142;28;20062;-68
2024/03/16 01:39:29;;;;;;;42.22;12.40;;;10.70;99.90;;;;;;5088890;28;20077;-69
2024/03/16 01:41:55;;;;;;;48.00;14.38;;;10.70;99.90;;;;;;5105296;28;20046;-68
2024/03/16 01:44:20;;;;;;;46.42;15.40;;;10.70;99.90;;;;;;5085679;28;20040;-68
2024/03/16 01:46:47;;;;;;;48.13;13.80;;;10.70;99.90;;;;;;5087783;28;20456;-68
2024/03/16 01:49:13;;;;;;;42.95;11.82;;;10.60;99.90;;;;;;5105024;28;20081;-68
2024/03/16 01:51:39;;;;;;;46.35;12.20;;;10.60;99.90;;;;;;5088213;28;20036;-68
2024/03/16 01:54:08;;;;;;;41.63;10.80;;;10.60;99.90;;;;;;5105239;27;20040;-68
2024/03/16 01:56:36;;;;;;;38.70;9.88;;;10.60;99.90;;;;;;5090234;28;20039;-69
2024/03/16 01:59:02;;;;;;;39.90;9.45;;;10.80;99.90;;;;;;5106746;28;20820;-68
2024/03/16 02:01:28;;;;;;;31.40;7.63;;;10.60;99.90;;;;;;5087360;28;20040;-68
2024/03/16 02:03:57;;;;;;;43.70;8.82;;;10.50;99.90;;;;;;5087916;28;20043;-69
2024/03/16 02:06:22;;;;;;;27.08;7.07;;;10.50;99.90;;;;;;5104533;28;20067;-68
2024/03/16 02:08:48;;;;;;;24.85;5.65;;;10.50;99.90;;;;;;5099554;28;20536;-68
2024/03/16 02:11:14;;;;;;;17.40;4.10;;;10.40;99.90;;;;;;5102191;28;20065;-69
2024/03/16 02:13:40;;;;;;;11.48;3.55;;;10.40;99.90;;;;;;5119616;27;20043;-69
2024/03/16 02:16:05;;;;;;;23.10;4.32;;;10.40;99.90;;;;;;5103569;28;20043;-68
2024/03/16 02:18:31;;;;;;;15.75;3.92;;;10.30;99.90;;;;;;5102324;28;20036;-68
2024/03/16 02:20:57;;;;;;;21.15;5.07;;;10.20;99.90;;;;;;5087430;28;20165;-68
2024/03/16 02:23:22;;;;;;;14.98;3.22;;;10.20;99.90;;;;;;5116813;27;20040;-68
2024/03/16 02:25:48;;;;;;;17.50;3.88;;;10.10;99.90;;;;;;5114770;27;20502;-68
2024/03/16 02:28:14;;;;;;;15.27;3.78;;;10.10;99.90;;;;;;5086191;27;20181;-68
2024/03/16 02:30:39;;;;;;;11.38;3.30;;;10.10;99.90;;;;;;5114032;27;20050;-68
2024/03/16 02:33:08;;;;;;;9.32;1.98;;;10.00;99.90;;;;;;5083599;28;20492;-68
2024/03/16 02:35:34;;;;;;;5.90;2.30;;;9.90;99.90;;;;;;5099833;28;20047;-69
2024/03/16 02:37:59;;;;;;;6.95;1.48;;;9.90;99.90;;;;;;5115876;27;20047;-68
2024/03/16 02:40:25;;;;;;;6.07;1.30;;;9.90;99.90;;;;;;5084132;28;20047;-68
2024/03/16 02:42:51;;;;;;;4.80;1.58;;;9.70;99.90;;;;;;5085247;28;20050;-68
2024/03/16 02:45:17;;;;;;;3.53;1.00;;;9.70;99.90;;;;;;5103889;28;20511;-68
2024/03/16 02:47:46;;;;;;;3.28;0.85;;;9.60;99.90;;;;;;5084734;28;20039;-68
2024/03/16 02:50:12;;;;;;;3.20;0.88;;;9.50;99.90;;;;;;5085393;28;20036;-68
2024/03/16 02:52:38;;;;;;;3.10;0.73;;;9.40;99.90;;;;;;5083011;28;20362;-68
2024/03/16 02:55:05;;;;;;;2.53;0.55;;;9.40;99.90;;;;;;5100098;28;20039;-68
2024/03/16 02:57:30;;;;;;;4.07;0.60;;;9.30;99.90;;;;;;5115904;27;20043;-68
2024/03/16 02:59:56;;;;;;;4.03;1.08;;;9.20;99.90;;;;;;5085122;28;20447;-68
2024/03/16 03:02:26;;;;;;;6.57;0.80;;;9.20;99.90;;;;;;5082536;28;20142;-69
2024/03/16 03:04:52;;;;;;;3.85;0.50;;;9.10;99.90;;;;;;5100304;28;20079;-68
2024/03/16 03:07:18;;;;;;;3.95;1.63;;;9.10;99.90;;;;;;5086539;28;20055;-69
2024/03/16 03:09:46;;;;;;;2.58;0.60;;;9.10;99.90;;;;;;5084637;28;20036;-69
2024/03/16 03:12:12;;;;;;;2.95;0.40;;;9.00;99.90;;;;;;5085631;28;20035;-68
2024/03/16 03:14:38;;;;;;;4.55;0.43;;;9.00;99.90;;;;;;5084122;28;20038;-68
2024/03/16 03:17:04;;;;;;;2.38;0.40;;;9.00;99.90;;;;;;5102348;28;20032;-68
2024/03/16 03:19:30;;;;;;;2.90;0.30;;;8.90;99.90;;;;;;5086204;28;20517;-68
2024/03/16 03:21:56;;;;;;;1.75;0.40;;;8.90;99.90;;;;;;5086421;28;20035;-68
2024/03/16 03:24:21;;;;;;;3.05;0.60;;;8.90;99.90;;;;;;5103081;28;20494;-69
2024/03/16 03:26:47;;;;;;;2.75;0.55;;;8.90;99.90;;;;;;5104046;28;20040;-68
2024/03/16 03:29:12;;;;;;;4.78;0.80;;;9.00;99.90;;;;;;5096315;28;20036;-68
2024/03/16 03:31:38;;;;;;;2.88;0.40;;;8.80;99.90;;;;;;5112492;27;20449;-68
2024/03/16 03:34:04;;;;;;;2.97;0.40;;;8.80;99.90;;;;;;5101501;28;20028;-68
2024/03/16 03:36:30;;;;;;;4.00;0.50;;;8.80;99.90;;;;;;5115516;27;20039;-68
2024/03/16 03:38:58;;;;;;;4.15;1.05;;;8.80;99.90;;;;;;5103306;28;20043;-68
2024/03/16 03:41:23;;;;;;;2.28;0.40;;;8.90;99.90;;;;;;5116832;27;20122;-69
2024/03/16 03:43:59;;;;;;;2.00;0.40;;;8.80;99.90;;;;;;5102150;28;20124;-68
2024/03/16 03:46:49;;;;;;;2.55;0.60;;;8.80;99.90;;;;;;5085703;28;20044;-69
2024/03/16 03:49:25;;;;;;;6.53;1.05;;;8.80;99.90;;;;;;5083338;28;20389;-67
2024/03/16 03:51:52;;;;;;;4.95;0.60;;;8.70;99.90;;;;;;5103675;28;20047;-68
2024/03/16 03:54:18;;;;;;;3.22;0.93;;;8.70;99.90;;;;;;5116020;27;20478;-68
2024/03/16 03:56:44;;;;;;;2.10;0.68;;;8.70;99.90;;;;;;5100923;28;20111;-69
2024/03/16 03:59:09;;;;;;;3.13;0.25;;;8.70;99.90;;;;;;5103492;28;20381;-68
2024/03/16 04:01:35;;;;;;;0.82;0.20;;;8.70;99.90;;;;;;5113184;27;20051;-68
2024/03/16 04:04:00;;;;;;;2.90;0.50;;;8.70;99.90;;;;;;5088256;28;20067;-68
2024/03/16 04:06:26;;;;;;;4.00;0.40;;;8.60;99.90;;;;;;5089517;28;20052;-68
2024/03/16 04:08:51;;;;;;;2.42;0.30;;;8.60;99.90;;;;;;5112546;27;20055;-68
2024/03/16 04:11:17;;;;;;;2.35;0.57;;;8.60;99.90;;;;;;5086944;28;20039;-68
2024/03/16 04:13:43;;;;;;;4.82;0.50;;;8.50;99.90;;;;;;5082996;28;20075;-68
2024/03/16 04:16:10;;;;;;;3.90;0.55;;;8.50;99.90;;;;;;5099567;28;20036;-68
2024/03/16 04:18:35;;;;;;;4.35;0.68;;;8.40;99.90;;;;;;5116317;27;20052;-68
2024/03/16 04:21:02;;;;;;;4.68;0.90;;;8.30;99.90;;;;;;5100111;28;20133;-68
2024/03/16 04:23:28;;;;;;;6.53;1.30;;;8.40;99.90;;;;;;5089605;28;20050;-68
2024/03/16 04:25:53;;;;;;;9.15;1.48;;;8.40;99.90;;;;;;5104247;28;20039;-68
2024/03/16 04:28:19;;;;;;;8.10;1.10;;;8.30;99.90;;;;;;5102191;28;21247;-69
2024/03/16 04:30:45;;;;;;;11.60;2.15;;;8.20;99.90;;;;;;5085207;28;20038;-69
2024/03/16 04:33:11;;;;;;;9.45;1.45;;;8.20;99.90;;;;;;5118933;27;20036;-68
2024/03/16 04:35:37;;;;;;;12.85;1.63;;;8.20;99.90;;;;;;5083013;28;20119;-69
2024/03/16 04:38:02;;;;;;;15.23;2.55;;;8.20;99.90;;;;;;5101176;28;20051;-68
2024/03/16 04:40:28;;;;;;;13.82;1.90;;;8.10;99.90;;;;;;5084616;28;20036;-68
2024/03/16 04:42:54;;;;;;;11.55;1.67;;;8.10;99.90;;;;;;5102593;28;20481;-68
2024/03/16 04:45:19;;;;;;;10.32;2.05;;;8.10;99.90;;;;;;5100911;27;20092;-68
2024/03/16 04:47:45;;;;;;;15.98;2.58;;;8.40;99.90;;;;;;5102372;27;20794;-68
2024/03/16 04:50:11;;;;;;;11.55;2.30;;;8.10;99.90;;;;;;5087900;28;20035;-68
2024/03/16 04:52:37;;;;;;;12.73;2.63;;;8.00;99.90;;;;;;5085114;28;20046;-68
2024/03/16 04:55:03;;;;;;;13.82;2.10;;;8.00;99.90;;;;;;5088893;28;20043;-68
2024/03/16 04:57:29;;;;;;;12.48;1.58;;;7.90;99.90;;;;;;5086404;28;20151;-69
2024/03/16 04:59:54;;;;;;;13.68;2.17;;;7.90;99.90;;;;;;5104285;27;20114;-68
2024/03/16 05:02:20;;;;;;;18.92;2.33;;;7.90;99.90;;;;;;5116467;27;20055;-69
2024/03/16 05:04:45;;;;;;;16.30;3.05;;;7.90;99.90;;;;;;5103651;27;20079;-69
2024/03/16 05:07:11;;;;;;;13.80;1.80;;;7.90;99.90;;;;;;5084883;28;20043;-67
2024/03/16 05:09:37;;;;;;;20.98;2.95;;;7.80;99.90;;;;;;5115051;27;20032;-68
2024/03/16 05:12:02;;;;;;;14.85;1.95;;;7.80;99.90;;;;;;5104335;27;20043;-68
2024/03/16 05:14:28;;;;;;;15.65;2.20;;;7.80;99.90;;;;;;5088192;28;20047;-68
2024/03/16 05:16:54;;;;;;;13.35;2.47;;;7.80;99.90;;;;;;5105382;27;20100;-69
2024/03/16 05:19:19;;;;;;;13.40;1.50;;;7.80;99.90;;;;;;5086252;27;20050;-68
2024/03/16 05:21:46;;;;;;;20.38;3.38;;;7.80;99.90;;;;;;5086908;27;20557;-69
2024/03/16 05:24:12;;;;;;;13.00;1.67;;;7.80;99.90;;;;;;5117491;27;20040;-69
2024/03/16 05:26:38;;;;;;;13.38;1.98;;;7.80;99.90;;;;;;5082971;28;20036;-68
2024/03/16 05:29:05;;;;;;;21.73;2.22;;;7.80;99.90;;;;;;5101163;28;20046;-68
2024/03/16 05:31:32;;;;;;;14.60;2.38;;;7.80;99.90;;;;;;5075426;28;20051;-68
2024/03/16 05:33:58;;;;;;;16.02;1.52;;;7.80;99.90;;;;;;5101930;27;20036;-68
2024/03/16 05:36:23;;;;;;;14.95;2.28;;;7.80;99.90;;;;;;5089460;27;20042;-68
2024/03/16 05:38:49;;;;;;;13.75;2.85;;;7.70;99.90;;;;;;5088482;28;20047;-68
2024/03/16 05:41:15;;;;;;;12.07;1.92;;;7.70;99.90;;;;;;5106768;27;20469;-68
2024/03/16 05:43:44;;;;;;;7.95;1.40;;;7.70;99.90;;;;;;5086751;28;20044;-68
2024/03/16 05:46:10;;;;;;;11.50;1.88;;;7.70;99.90;;;;;;5087388;27;20044;-68
2024/03/16 05:48:36;;;;;;;8.63;1.27;;;7.70;99.90;;;;;;5103719;27;20040;-68
2024/03/16 05:51:02;;;;;;;10.13;1.52;;;7.70;99.90;;;;;;5102365;27;20032;-68
2024/03/16 05:53:28;;;;;;;12.23;1.83;;;7.70;99.90;;;;;;5105822;27;20066;-68
2024/03/16 05:55:54;;;;;;;11.57;1.77;;;7.60;99.90;;;;;;5106272;27;20071;-69
2024/03/16 05:58:22;;;;;;;7.38;1.25;;;7.60;99.90;;;;;;5104849;27;20043;-69
2024/03/16 06:00:48;;;;;;;12.50;1.95;;;7.60;99.90;;;;;;5084624;28;20065;-69
2024/03/16 06:03:14;;;;;;;11.88;1.10;;;7.70;99.90;;;;;;5115854;27;20032;-68
2024/03/16 06:05:43;;;;;;;11.15;1.40;;;7.60;99.90;;;;;;5086036;28;20761;-68
2024/03/16 06:08:10;;;;;;;12.80;2.38;;;7.60;99.90;;;;;;5084488;28;20464;-68
2024/03/16 06:10:36;;;;;;;8.85;1.75;;;7.60;99.90;;;;;;5115247;27;20068;-68
2024/03/16 06:13:02;;;;;;;7.53;1.35;;;7.60;99.90;;;;;;5101455;28;20032;-68
2024/03/16 06:15:28;;;;;;;11.00;1.60;;;7.60;99.90;;;;;;5103242;28;20480;-68
2024/03/16 06:17:53;;;;;;;8.05;1.85;;;7.50;99.90;;;;;;5088203;28;20048;-68
2024/03/16 06:20:19;;;;;;;12.20;1.63;;;7.60;99.90;;;;;;5115248;27;20614;-68
2024/03/16 06:22:45;;;;;;;7.18;1.27;;;7.60;99.90;;;;;;5083735;28;20066;-68
2024/03/16 06:25:14;;;;;;;10.05;1.50;;;7.60;99.90;;;;;;5083203;28;20043;-68
2024/03/16 06:27:43;;;;;;;7.25;1.50;;;7.60;99.90;;;;;;5103589;28;20044;-68
2024/03/16 06:30:13;;;;;;;7.50;1.40;;;7.60;99.90;;;;;;5083820;28;20044;-68
2024/03/16 06:33:05;;;;;;;7.72;1.23;;;7.60;99.90;;;;;;5070591;28;20036;-68
2024/03/16 06:35:33;;;;;;;5.55;0.77;;;7.50;99.90;;;;;;5095528;28;20490;-68
2024/03/16 06:37:59;;;;;;;8.90;1.13;;;7.60;99.90;;;;;;5112617;27;20642;-68
2024/03/16 06:40:25;;;;;;;8.95;1.58;;;7.60;99.90;;;;;;5113705;27;20035;-68
2024/03/16 06:42:51;;;;;;;4.78;0.90;;;7.60;99.90;;;;;;5112057;27;20047;-69
2024/03/16 06:45:16;;;;;;;7.75;1.17;;;7.60;99.90;;;;;;5096949;27;20496;-69
2024/03/16 06:47:42;;;;;;;6.45;0.82;;;7.60;99.90;;;;;;5098156;27;20104;-66
2024/03/16 06:50:07;;;;;;;7.95;1.02;;;7.60;99.90;;;;;;5084064;27;20035;-66
2024/03/16 06:52:33;;;;;;;3.53;0.95;;;7.60;99.90;;;;;;5100810;27;20038;-68
2024/03/16 06:54:59;;;;;;;4.35;0.98;;;7.60;99.90;;;;;;5078864;28;20063;-66
2024/03/16 06:57:25;;;;;;;6.00;0.65;;;7.60;99.90;;;;;;5081194;28;20050;-66
2024/03/16 06:59:51;;;;;;;7.93;0.88;;;7.60;99.90;;;;;;5111831;27;20050;-66
2024/03/16 07:02:17;;;;;;;5.43;0.60;;;7.60;99.90;;;;;;5113855;27;20049;-67
2024/03/16 07:04:43;;;;;;;5.68;1.00;;;7.60;99.90;;;;;;5080989;28;20047;-66
2024/03/16 07:07:09;;;;;;;6.88;0.73;;;7.60;99.90;;;;;;5111405;27;20645;-66
2024/03/16 07:09:34;;;;;;;7.30;0.85;;;8.00;99.90;;;;;;5078856;28;20044;-67
2024/03/16 07:12:00;;;;;;;4.93;1.00;;;7.70;99.90;;;;;;5095883;28;20035;-66
2024/03/16 07:14:26;;;;;;;6.03;0.90;;;7.70;99.90;;;;;;5098526;27;20122;-67
2024/03/16 07:16:52;;;;;;;6.97;1.00;;;7.70;99.90;;;;;;5080887;28;20043;-67
2024/03/16 07:19:22;;;;;;;6.55;0.77;;;7.70;99.90;;;;;;5081930;28;20857;-66
2024/03/16 07:21:50;;;;;;;8.60;1.00;;;7.70;99.90;;;;;;5098605;28;20068;-67
2024/03/16 07:24:15;;;;;;;7.80;0.75;;;7.80;99.90;;;;;;5100343;28;20024;-67
2024/03/16 07:26:42;;;;;;;8.43;1.30;;;7.80;99.90;;;;;;5101322;28;20088;-66
2024/03/16 07:29:08;;;;;;;8.27;1.40;;;7.80;99.90;;;;;;5099017;28;20050;-67
2024/03/16 07:31:35;;;;;;;5.68;0.82;;;7.80;99.90;;;;;;5082197;28;20040;-67
2024/03/16 07:34:01;;;;;;;9.15;1.08;;;7.90;99.90;;;;;;5081368;28;20050;-67
2024/03/16 07:36:27;;;;;;;6.20;1.10;;;7.90;99.90;;;;;;5113561;27;20052;-67
2024/03/16 07:38:53;;;;;;;7.43;1.08;;;7.90;99.90;;;;;;5084143;28;20055;-67
2024/03/16 07:41:19;;;;;;;6.10;0.82;;;8.00;99.90;;;;;;5115898;28;20568;-67
2024/03/16 07:43:44;;;;;;;6.18;0.98;;;8.00;99.90;;;;;;5102078;28;20114;-67
2024/03/16 07:46:10;;;;;;;4.32;0.80;;;8.00;99.90;;;;;;5112748;28;20130;-67
2024/03/16 07:48:36;;;;;;;8.43;1.35;;;8.00;99.90;;;;;;5098691;28;20126;-66
2024/03/16 07:51:04;;;;;;;7.53;1.02;;;8.00;99.90;;;;;;5101020;28;20089;-67
2024/03/16 07:53:33;;;;;;;9.68;1.17;;;8.00;99.90;;;;;;5095717;28;20441;-66
2024/03/16 07:55:59;;;;;;;7.38;0.75;;;8.00;99.90;;;;;;5083421;28;20044;-67
2024/03/16 07:58:25;;;;;;;8.05;0.85;;;8.10;99.90;;;;;;5113666;28;20036;-67
2024/03/16 08:00:51;;;;;;;4.60;1.00;;;8.10;99.90;;;;;;5110501;27;20044;-67
2024/03/16 08:03:17;;;;;;;6.30;1.05;;;8.20;99.90;;;;;;5113560;27;20478;-67
2024/03/16 08:05:44;;;;;;;8.20;1.08;;;8.30;99.90;;;;;;5079232;28;20123;-67
2024/03/16 08:08:09;;;;;;;5.03;0.80;;;8.30;99.90;;;;;;5081119;28;20040;-66
2024/03/16 08:10:38;;;;;;;8.63;0.77;;;8.30;99.90;;;;;;5112061;27;20043;-67
2024/03/16 08:13:04;;;;;;;6.75;0.75;;;8.30;99.90;;;;;;5083832;28;20092;-67
2024/03/16 08:15:30;;;;;;;8.07;0.95;;;8.30;99.90;;;;;;5104611;28;20043;-67
2024/03/16 08:17:57;;;;;;;8.10;1.83;;;8.30;99.90;;;;;;5088289;28;20120;-67
2024/03/16 08:20:23;;;;;;;6.53;0.55;;;8.40;99.90;;;;;;5085222;28;20070;-67
2024/03/16 08:22:53;;;;;;;6.82;1.02;;;8.40;99.90;;;;;;5104689;28;20040;-66
2024/03/16 08:25:22;;;;;;;10.13;1.83;;;8.40;99.90;;;;;;5088154;28;20473;-66
2024/03/16 08:27:48;;;;;;;17.45;3.03;;;8.50;99.90;;;;;;5087223;28;20115;-67
2024/03/16 08:30:13;;;;;;;6.32;0.95;;;8.60;99.90;;;;;;5088182;28;20107;-66
2024/03/16 08:32:39;;;;;;;7.43;0.82;;;8.60;99.90;;;;;;5104522;28;20077;-66
2024/03/16 08:35:06;;;;;;;6.57;1.35;;;8.70;99.90;;;;;;5118812;27;20040;-67
2024/03/16 08:37:31;;;;;;;8.27;1.85;;;8.80;99.90;;;;;;5073126;28;20035;-67
2024/03/16 08:39:57;;;;;;;5.35;1.25;;;8.80;99.90;;;;;;5085865;28;20358;-66
2024/03/16 08:42:23;;;;;;;12.50;1.77;;;8.90;99.90;;;;;;5106812;27;20093;-66
2024/03/16 08:44:48;;;;;;;7.63;1.05;;;9.00;99.90;;;;;;5104225;27;20039;-67
2024/03/16 08:47:14;;;;;;;8.43;1.65;;;9.10;99.90;;;;;;5084910;28;20362;-67
2024/03/16 08:49:39;;;;;;;6.00;0.82;;;9.10;99.90;;;;;;5083922;28;20063;-66
2024/03/16 08:52:05;;;;;;;7.75;1.02;;;9.10;99.90;;;;;;5082290;28;20035;-67
2024/03/16 08:54:32;;;;;;;5.53;1.25;;;9.10;99.90;;;;;;5117265;27;20041;-67
2024/03/16 08:56:58;;;;;;;10.10;0.85;;;9.20;99.90;;;;;;5103083;28;20389;-67
2024/03/16 08:59:24;;;;;;;5.72;0.50;;;9.20;99.90;;;;;;5105926;28;20500;-67
2024/03/16 09:01:50;;;;;;;4.50;0.80;;;9.20;99.90;;;;;;5116655;27;20059;-64
2024/03/16 09:04:15;;;;;;;4.90;0.90;;;9.30;99.90;;;;;;5103776;28;20036;-67
2024/03/16 09:06:41;;;;;;;7.00;1.38;;;9.30;99.90;;;;;;5085571;28;20146;-66
2024/03/16 09:09:10;;;;;;;5.38;0.95;;;9.40;99.90;;;;;;5103714;27;20043;-66
2024/03/16 09:11:39;;;;;;;8.80;0.80;;;9.50;99.90;;;;;;5086686;28;20490;-67
2024/03/16 09:14:07;;;;;;;6.18;1.52;;;9.60;99.90;;;;;;5103741;28;20393;-66
2024/03/16 09:16:40;;;;;;;6.22;0.80;;;9.70;99.90;;;;;;5104264;28;20040;-67
2024/03/16 09:19:09;;;;;;;4.25;0.60;;;9.60;99.90;;;;;;5117062;27;20059;-67
2024/03/16 09:21:34;;;;;;;6.18;0.70;;;9.60;99.90;;;;;;5086548;28;20109;-66
2024/03/16 09:24:00;;;;;;;7.40;0.70;;;9.60;99.90;;;;;;5104773;27;20101;-66
2024/03/16 09:26:25;;;;;;;10.38;2.45;;;9.50;99.90;;;;;;5114885;27;20032;-67
2024/03/16 09:28:51;;;;;;;7.70;1.65;;;9.40;99.90;;;;;;5101314;28;20054;-70
2024/03/16 09:31:17;;;;;;;5.28;0.90;;;9.40;99.90;;;;;;5114512;27;20036;-69
2024/03/16 09:33:43;;;;;;;6.10;1.00;;;9.30;99.90;;;;;;5086488;28;20074;-68
2024/03/16 09:36:09;;;;;;;3.85;1.00;;;9.30;99.90;;;;;;5104859;28;20200;-66
2024/03/16 09:38:35;;;;;;;5.43;0.70;;;9.40;99.90;;;;;;5085864;28;20040;-69
2024/03/16 09:41:00;;;;;;;10.27;1.42;;;9.40;99.90;;;;;;5114013;27;20040;-68
2024/03/16 09:43:32;;;;;;;4.90;0.57;;;9.50;99.90;;;;;;5087602;27;20044;-67
2024/03/16 09:45:59;;;;;;;7.45;0.70;;;9.50;99.90;;;;;;5116124;27;20039;-65
2024/03/16 09:48:24;;;;;;;7.57;0.77;;;9.60;99.90;;;;;;5085417;28;20040;-66
2024/03/16 09:50:55;;;;;;;11.30;0.90;;;9.70;99.90;;;;;;5115530;27;20040;-65
2024/03/16 09:53:23;;;;;;;5.18;1.10;;;9.70;99.90;;;;;;5102964;27;20035;-65
2024/03/16 09:55:50;;;;;;;5.22;1.10;;;9.60;99.90;;;;;;5089689;28;20051;-66
2024/03/16 09:58:18;;;;;;;7.35;1.48;;;9.80;99.90;;;;;;5115508;27;20097;-65
2024/03/16 10:00:47;;;;;;;4.32;1.15;;;9.80;99.90;;;;;;5086587;28;20496;-66
2024/03/16 10:03:15;;;;;;;5.88;0.65;;;9.90;99.90;;;;;;5100048;28;20172;-65
2024/03/16 10:05:41;;;;;;;5.88;0.52;;;10.00;99.90;;;;;;5087925;28;20104;-65
2024/03/16 10:08:07;;;;;;;5.25;0.70;;;10.10;99.90;;;;;;5086630;27;20036;-66
2024/03/16 10:10:32;;;;;;;5.78;0.93;;;10.10;99.90;;;;;;5101801;28;20033;-66
2024/03/16 10:13:08;;;;;;;6.00;0.70;;;10.30;99.90;;;;;;5102741;28;20028;-65
2024/03/16 10:15:41;;;;;;;3.88;0.60;;;10.40;99.90;;;;;;5085973;28;20519;-66
2024/03/16 10:18:14;;;;;;;4.05;0.60;;;10.40;99.90;;;;;;5087869;28;20132;-67
2024/03/16 10:20:42;;;;;;;7.40;0.73;;;10.50;99.90;;;;;;5115779;27;20482;-67
2024/03/16 10:23:16;;;;;;;6.40;0.70;;;10.50;99.90;;;;;;5104526;28;20039;-67
2024/03/16 10:25:46;;;;;;;7.25;0.75;;;10.60;99.90;;;;;;5113507;27;20040;-66
2024/03/16 10:28:15;;;;;;;7.40;0.98;;;10.60;99.90;;;;;;5101722;28;20051;-66
2024/03/16 10:30:45;;;;;;;8.88;1.48;;;10.60;99.90;;;;;;5084817;28;20039;-66
2024/03/16 10:33:11;;;;;;;2.05;0.60;;;10.80;99.90;;;;;;5102804;28;20051;-66
2024/03/16 10:35:39;;;;;;;5.75;0.47;;;10.90;99.90;;;;;;5102240;28;20520;-67
2024/03/16 10:38:16;;;;;;;5.53;1.13;;;10.90;99.90;;;;;;5094143;27;20046;-66
2024/03/16 10:40:42;;;;;;;3.97;0.68;;;10.90;99.90;;;;;;5086173;28;20048;-67
2024/03/16 10:43:14;;;;;;;2.53;0.30;;;10.80;99.90;;;;;;5103216;27;20092;-68
2024/03/16 10:45:47;;;;;;;5.85;0.55;;;10.80;99.90;;;;;;5100733;28;20040;-66
2024/03/16 10:48:14;;;;;;;2.53;0.43;;;10.70;99.90;;;;;;5073008;28;20043;-66
2024/03/16 10:50:46;;;;;;;7.50;0.75;;;10.60;99.90;;;;;;5080902;28;20123;-65
2024/03/16 10:53:13;;;;;;;4.70;0.60;;;10.50;99.90;;;;;;5113874;27;20040;-65
2024/03/16 10:55:40;;;;;;;2.53;0.70;;;10.40;99.90;;;;;;5103423;28;20035;-66
2024/03/16 10:58:25;;;;;;;3.95;0.50;;;10.30;99.90;;;;;;5084428;28;20473;-65
2024/03/16 11:01:01;;;;;;;4.50;0.50;;;10.30;99.90;;;;;;5114575;27;20627;-65
2024/03/16 11:03:30;;;;;;;5.22;0.65;;;10.30;99.90;;;;;;5102281;27;20089;-65
2024/03/16 11:06:09;;;;;;;4.78;0.45;;;10.20;99.90;;;;;;5088419;28;20093;-65
2024/03/16 11:08:41;;;;;;;4.05;0.93;;;10.30;99.90;;;;;;5086782;28;20569;-65
2024/03/16 11:11:15;;;;;;;6.25;0.63;;;10.20;99.90;;;;;;5115587;27;20032;-65
2024/03/16 11:14:11;;;;;;;9.15;1.73;;;10.30;99.90;;;;;;5112648;27;20088;-65
2024/03/16 11:16:45;;;;;;;6.30;0.63;;;10.20;99.90;;;;;;5085278;28;20083;-65
2024/03/16 11:19:20;;;;;;;5.60;1.33;;;10.30;99.90;;;;;;5083904;28;20051;-65
2024/03/16 11:21:52;;;;;;;;;;;10.40;99.90;;;;;;5087772;28;20046;-65
2024/03/16 11:24:19;;;;;;;8.07;2.00;;;10.50;99.90;;;;;;5085021;28;19920;-65
2024/03/16 11:26:44;;;;;;;6.65;0.98;;;10.50;99.90;;;;;;5101488;27;20114;-65
2024/03/16 11:29:21;;;;;;;6.93;1.10;;;10.60;99.90;;;;;;5064099;28;20096;-66
2024/03/16 11:31:48;;;;;;;5.63;1.55;;;10.60;99.90;;;;;;5083354;28;20486;-65
2024/03/16 11:34:19;;;;;;;5.65;1.00;;;10.80;99.90;;;;;;5083548;28;20089;-66
2024/03/16 11:37:05;;;;;;;7.95;0.85;;;10.80;99.90;;;;;;5083662;28;20039;-65
2024/03/16 11:39:32;;;;;;;8.32;0.98;;;11.00;99.90;;;;;;5084314;28;20039;-65
2024/03/16 11:42:00;;;;;;;7.03;0.80;;;11.00;99.90;;;;;;5081961;28;20122;-65
2024/03/16 11:44:26;;;;;;;4.03;1.17;;;11.10;99.90;;;;;;5114873;28;20413;-64
2024/03/16 11:46:55;;;;;;;7.22;0.95;;;11.20;99.90;;;;;;5102377;28;20054;-65
2024/03/16 11:49:21;;;;;;;8.10;1.35;;;11.20;99.90;;;;;;5116435;28;20532;-65
2024/03/16 11:51:56;;;;;;;3.03;0.73;;;11.30;99.90;;;;;;5115325;28;20050;-65
2024/03/16 11:54:23;;;;;;;5.10;0.52;;;11.50;99.90;;;;;;5087432;28;20071;-66
2024/03/16 11:56:49;;;;;;;2.92;0.38;;;11.60;99.90;;;;;;5095308;28;20085;-65
2024/03/16 11:59:18;;;;;;;6.40;0.82;;;11.60;99.90;;;;;;5103045;27;20432;-64
2024/03/16 12:01:47;;;;;;;5.78;0.75;;;11.60;99.90;;;;;;5120508;27;20048;-66
2024/03/16 12:04:15;;;;;;;4.43;0.93;;;11.60;99.90;;;;;;5104011;27;20074;-65
2024/03/16 12:06:42;;;;;;;4.18;0.88;;;11.50;99.90;;;;;;5103338;28;20036;-66
2024/03/16 12:09:15;;;;;;;3.40;0.40;;;11.50;99.90;;;;;;5089033;28;20110;-65
2024/03/16 12:11:50;;;;;;;4.55;0.70;;;11.50;99.90;;;;;;5086217;28;20078;-66
2024/03/16 12:14:21;;;;;;;5.72;1.00;;;11.40;99.90;;;;;;5087166;27;20043;-65
2024/03/16 12:16:48;;;;;;;4.40;0.60;;;11.40;99.90;;;;;;5100396;28;20525;-65
2024/03/16 12:19:14;;;;;;;5.22;1.45;;;11.30;99.90;;;;;;5105215;28;20090;-66
2024/03/16 12:21:41;;;;;;;4.97;0.60;;;11.20;99.90;;;;;;5116277;27;20048;-65
2024/03/16 12:24:10;;;;;;;4.85;0.57;;;11.10;99.90;;;;;;5083065;28;20039;-65
2024/03/16 12:26:38;;;;;;;5.18;1.02;;;11.00;99.90;;;;;;5103436;28;20543;-65
2024/03/16 12:29:09;;;;;;;4.80;0.60;;;11.10;99.90;;;;;;5083538;28;20040;-65
2024/03/16 12:31:36;;;;;;;5.55;2.10;;;10.90;99.90;;;;;;5083289;28;20069;-65
2024/03/16 12:34:02;;;;;;;7.07;0.55;;;10.90;99.90;;;;;;5116533;27;20036;-65
2024/03/16 12:36:27;;;;;;;4.35;0.55;;;11.00;99.90;;;;;;5101090;28;20092;-65
2024/03/16 12:38:53;;;;;;;5.97;0.70;;;11.20;99.90;;;;;;5102004;28;20043;-65
2024/03/16 12:41:19;;;;;;;6.28;0.95;;;11.50;99.90;;;;;;5101724;28;20543;-65
2024/03/16 12:43:44;;;;;;;4.70;0.68;;;11.70;99.90;;;;;;5085147;28;20044;-66
2024/03/16 12:46:10;;;;;;;4.93;1.10;;;11.90;99.90;;;;;;5101191;28;20089;-65
2024/03/16 12:48:36;;;;;;;5.93;0.93;;;12.20;99.90;;;;;;5084205;28;20115;-65